Startpagina
METAR-TAF:

METAR-TAF

Vliegvelden :

Corumbá, Mato Grosso do Sul, Brazilië

breedte: 19-05S, lengte: 057-30W, hoogte: 130 m

Actueel weer

Dit bericht is 4 uur en het 0 minuten geleden gemaakt, om 21:00 UTC
Wind 8 kt uit het oosten
Temperatuur 26°C
Vochtigheid 51%
Druk 1014 hPa
Zicht 10 km of meer
geen wolken onder 1500 m en geen cumulonimbus

METAR: SBCR 192100Z 10008KT CAVOK 26/15 Q1014

Tijdstip: 21:00 (01:00 UTC)

Verwachting

Dit bericht is 9 uur en het 30 minuten geleden gemaakt, om 15:30 UTC
Verwachting geldig van 19 om 18 UTC tot 20 om 18 UTC
Wind 10 kt uit het oosten
Zicht 10 km of meer
geen wolken onder 1500 m en geen cumulonimbus

TAF: SBCR 191530Z 1918/2018 09010KT CAVOK TX28/1919Z TN20/2008Z RMK PE G

Waarnemingen en weersverwachtingen van meer dan 4000 vliegvelden (METAR en TAF).

De beschikbare stations zijn de gele en rode punten op de kaart.

Ga met uw muis naar het station om de naam te zien.

Klik dan om waarnemingen en weersverwachtingen te zien.

kaart wijzigen: klik op de groene knoppen met een zwart kruis om in te zoomen, op de groene knop met een streepje om uit te zoomen of op de groene pijlen voor aangrenzende kaarten.


METAR-TAF: